sensor_id;sensor_type;location;lat;lon;timestamp;P1;durP1;ratioP1;P2;durP2;ratioP2
27412;SDS011;14871;52.702;5.230;2022-08-06T00:02:14;4.05;;;0.90;;
27412;SDS011;14871;52.702;5.230;2022-08-06T00:04:39;2.47;;;0.90;;
27412;SDS011;14871;52.702;5.230;2022-08-06T00:07:05;1.95;;;0.73;;
27412;SDS011;14871;52.702;5.230;2022-08-06T00:09:31;3.28;;;1.50;;
27412;SDS011;14871;52.702;5.230;2022-08-06T00:11:58;4.13;;;0.82;;
27412;SDS011;14871;52.702;5.230;2022-08-06T00:14:28;3.13;;;0.90;;
27412;SDS011;14871;52.702;5.230;2022-08-06T00:16:55;4.20;;;0.93;;
27412;SDS011;14871;52.702;5.230;2022-08-06T00:19:21;6.47;;;0.80;;
27412;SDS011;14871;52.702;5.230;2022-08-06T00:21:47;3.22;;;1.00;;
27412;SDS011;14871;52.702;5.230;2022-08-06T00:24:13;3.08;;;1.00;;
27412;SDS011;14871;52.702;5.230;2022-08-06T00:26:39;4.05;;;0.80;;
27412;SDS011;14871;52.702;5.230;2022-08-06T00:29:05;2.88;;;0.88;;
27412;SDS011;14871;52.702;5.230;2022-08-06T00:31:31;4.20;;;1.17;;
27412;SDS011;14871;52.702;5.230;2022-08-06T00:33:57;5.43;;;1.17;;
27412;SDS011;14871;52.702;5.230;2022-08-06T00:36:26;5.30;;;1.10;;
27412;SDS011;14871;52.702;5.230;2022-08-06T00:38:52;2.15;;;1.00;;
27412;SDS011;14871;52.702;5.230;2022-08-06T00:41:18;6.63;;;1.42;;
27412;SDS011;14871;52.702;5.230;2022-08-06T00:43:45;1.08;;;0.70;;
27412;SDS011;14871;52.702;5.230;2022-08-06T00:46:10;3.53;;;0.80;;
27412;SDS011;14871;52.702;5.230;2022-08-06T00:48:36;3.90;;;0.80;;
27412;SDS011;14871;52.702;5.230;2022-08-06T00:51:02;4.28;;;1.00;;
27412;SDS011;14871;52.702;5.230;2022-08-06T00:53:28;4.25;;;0.90;;
27412;SDS011;14871;52.702;5.230;2022-08-06T00:55:54;4.82;;;0.90;;
27412;SDS011;14871;52.702;5.230;2022-08-06T00:58:19;5.03;;;0.70;;
27412;SDS011;14871;52.702;5.230;2022-08-06T01:00:45;3.72;;;1.05;;
27412;SDS011;14871;52.702;5.230;2022-08-06T01:03:11;4.20;;;1.08;;
27412;SDS011;14871;52.702;5.230;2022-08-06T01:05:37;3.40;;;1.00;;
27412;SDS011;14871;52.702;5.230;2022-08-06T01:08:02;3.13;;;0.98;;
27412;SDS011;14871;52.702;5.230;2022-08-06T01:10:28;3.85;;;1.33;;
27412;SDS011;14871;52.702;5.230;2022-08-06T01:12:54;3.28;;;0.90;;
27412;SDS011;14871;52.702;5.230;2022-08-06T01:15:20;3.85;;;1.08;;
27412;SDS011;14871;52.702;5.230;2022-08-06T01:17:52;2.80;;;0.75;;
27412;SDS011;14871;52.702;5.230;2022-08-06T01:23:28;3.63;;;1.05;;
27412;SDS011;14871;52.702;5.230;2022-08-06T01:26:02;3.88;;;1.63;;
27412;SDS011;14871;52.702;5.230;2022-08-06T01:31:03;4.18;;;1.13;;
27412;SDS011;14871;52.702;5.230;2022-08-06T01:33:33;5.57;;;1.23;;
27412;SDS011;14871;52.702;5.230;2022-08-06T01:36:04;2.85;;;0.85;;
27412;SDS011;14871;52.702;5.230;2022-08-06T01:38:37;4.05;;;1.10;;
27412;SDS011;14871;52.702;5.230;2022-08-06T01:41:08;3.50;;;1.08;;
27412;SDS011;14871;52.702;5.230;2022-08-06T01:43:37;3.40;;;0.93;;
27412;SDS011;14871;52.702;5.230;2022-08-06T01:46:04;5.43;;;1.63;;
27412;SDS011;14871;52.702;5.230;2022-08-06T01:48:32;2.53;;;1.13;;
27412;SDS011;14871;52.702;5.230;2022-08-06T01:51:03;4.05;;;1.23;;
27412;SDS011;14871;52.702;5.230;2022-08-06T01:53:34;6.97;;;1.48;;
27412;SDS011;14871;52.702;5.230;2022-08-06T01:56:03;2.25;;;0.90;;
27412;SDS011;14871;52.702;5.230;2022-08-06T01:58:32;4.10;;;1.00;;
27412;SDS011;14871;52.702;5.230;2022-08-06T02:01:05;2.58;;;1.30;;
27412;SDS011;14871;52.702;5.230;2022-08-06T02:03:42;4.68;;;1.40;;
27412;SDS011;14871;52.702;5.230;2022-08-06T02:06:20;2.22;;;1.10;;
27412;SDS011;14871;52.702;5.230;2022-08-06T02:08:49;5.75;;;1.50;;
27412;SDS011;14871;52.702;5.230;2022-08-06T02:11:18;2.50;;;0.90;;
27412;SDS011;14871;52.702;5.230;2022-08-06T02:13:44;2.42;;;0.93;;
27412;SDS011;14871;52.702;5.230;2022-08-06T02:16:11;3.55;;;0.82;;
27412;SDS011;14871;52.702;5.230;2022-08-06T02:18:39;8.45;;;1.25;;
27412;SDS011;14871;52.702;5.230;2022-08-06T02:21:09;3.60;;;1.42;;
27412;SDS011;14871;52.702;5.230;2022-08-06T02:23:38;3.85;;;0.80;;
27412;SDS011;14871;52.702;5.230;2022-08-06T02:26:05;3.67;;;1.20;;
27412;SDS011;14871;52.702;5.230;2022-08-06T02:28:32;3.75;;;1.00;;
27412;SDS011;14871;52.702;5.230;2022-08-06T02:30:59;2.92;;;1.02;;
27412;SDS011;14871;52.702;5.230;2022-08-06T02:33:25;4.35;;;1.10;;
27412;SDS011;14871;52.702;5.230;2022-08-06T02:35:54;2.65;;;0.88;;
27412;SDS011;14871;52.702;5.230;2022-08-06T02:39:11;3.42;;;1.17;;
27412;SDS011;14871;52.702;5.230;2022-08-06T02:43:49;2.60;;;0.93;;
27412;SDS011;14871;52.702;5.230;2022-08-06T02:48:56;2.25;;;0.85;;
27412;SDS011;14871;52.702;5.230;2022-08-06T02:51:27;2.20;;;0.90;;
27412;SDS011;14871;52.702;5.230;2022-08-06T02:54:59;4.05;;;1.10;;
27412;SDS011;14871;52.702;5.230;2022-08-06T02:56:58;1.92;;;0.93;;
27412;SDS011;14871;52.702;5.230;2022-08-06T02:59:28;4.65;;;0.93;;
27412;SDS011;14871;52.702;5.230;2022-08-06T03:01:59;4.50;;;1.08;;
27412;SDS011;14871;52.702;5.230;2022-08-06T03:04:28;4.15;;;1.00;;
27412;SDS011;14871;52.702;5.230;2022-08-06T03:06:55;3.05;;;1.00;;
27412;SDS011;14871;52.702;5.230;2022-08-06T03:09:23;4.25;;;0.90;;
27412;SDS011;14871;52.702;5.230;2022-08-06T03:11:50;2.25;;;0.90;;
27412;SDS011;14871;52.702;5.230;2022-08-06T03:14:17;2.85;;;1.05;;
27412;SDS011;14871;52.702;5.230;2022-08-06T03:16:44;4.78;;;1.10;;
27412;SDS011;14871;52.702;5.230;2022-08-06T03:19:11;6.35;;;1.00;;
27412;SDS011;14871;52.702;5.230;2022-08-06T03:21:39;4.53;;;1.02;;
27412;SDS011;14871;52.702;5.230;2022-08-06T03:24:06;3.22;;;1.20;;
27412;SDS011;14871;52.702;5.230;2022-08-06T03:26:33;4.68;;;1.23;;
27412;SDS011;14871;52.702;5.230;2022-08-06T03:29:01;5.35;;;1.15;;
27412;SDS011;14871;52.702;5.230;2022-08-06T03:31:27;4.47;;;1.33;;
27412;SDS011;14871;52.702;5.230;2022-08-06T03:33:55;2.65;;;0.80;;
27412;SDS011;14871;52.702;5.230;2022-08-06T03:36:22;4.65;;;0.90;;
27412;SDS011;14871;52.702;5.230;2022-08-06T03:38:59;4.28;;;0.98;;
27412;SDS011;14871;52.702;5.230;2022-08-06T03:41:28;1.42;;;0.90;;
27412;SDS011;14871;52.702;5.230;2022-08-06T03:43:57;3.53;;;0.90;;
27412;SDS011;14871;52.702;5.230;2022-08-06T03:46:30;4.05;;;0.98;;
27412;SDS011;14871;52.702;5.230;2022-08-06T03:48:58;3.65;;;1.20;;
27412;SDS011;14871;52.702;5.230;2022-08-06T03:51:28;3.10;;;0.93;;
27412;SDS011;14871;52.702;5.230;2022-08-06T03:53:56;4.25;;;1.20;;
27412;SDS011;14871;52.702;5.230;2022-08-06T03:56:24;3.65;;;0.98;;
27412;SDS011;14871;52.702;5.230;2022-08-06T03:58:52;5.45;;;1.23;;
27412;SDS011;14871;52.702;5.230;2022-08-06T04:01:23;2.92;;;0.95;;
27412;SDS011;14871;52.702;5.230;2022-08-06T04:03:51;4.47;;;1.30;;
27412;SDS011;14871;52.702;5.230;2022-08-06T04:06:18;2.30;;;1.30;;
27412;SDS011;14871;52.702;5.230;2022-08-06T04:08:45;5.63;;;1.15;;
27412;SDS011;14871;52.702;5.230;2022-08-06T04:11:12;4.43;;;1.02;;
27412;SDS011;14871;52.702;5.230;2022-08-06T04:13:39;4.68;;;1.05;;
27412;SDS011;14871;52.702;5.230;2022-08-06T04:16:05;2.80;;;1.00;;
27412;SDS011;14871;52.702;5.230;2022-08-06T04:18:33;3.67;;;1.10;;
27412;SDS011;14871;52.702;5.230;2022-08-06T04:21:03;6.53;;;1.13;;
27412;SDS011;14871;52.702;5.230;2022-08-06T04:23:31;4.85;;;1.10;;
27412;SDS011;14871;52.702;5.230;2022-08-06T04:25:57;5.70;;;1.25;;
27412;SDS011;14871;52.702;5.230;2022-08-06T04:28:27;2.17;;;0.90;;
27412;SDS011;14871;52.702;5.230;2022-08-06T04:30:54;1.02;;;0.80;;
27412;SDS011;14871;52.702;5.230;2022-08-06T04:33:22;3.97;;;0.95;;
27412;SDS011;14871;52.702;5.230;2022-08-06T04:35:50;3.33;;;1.23;;
27412;SDS011;14871;52.702;5.230;2022-08-06T04:38:20;3.42;;;1.05;;
27412;SDS011;14871;52.702;5.230;2022-08-06T04:40:48;3.97;;;1.17;;
27412;SDS011;14871;52.702;5.230;2022-08-06T04:43:14;3.83;;;1.20;;
27412;SDS011;14871;52.702;5.230;2022-08-06T04:45:41;4.18;;;1.30;;
27412;SDS011;14871;52.702;5.230;2022-08-06T04:48:09;2.53;;;1.00;;
27412;SDS011;14871;52.702;5.230;2022-08-06T04:50:35;5.65;;;1.25;;
27412;SDS011;14871;52.702;5.230;2022-08-06T04:53:08;4.25;;;1.42;;
27412;SDS011;14871;52.702;5.230;2022-08-06T04:55:34;8.18;;;1.35;;
27412;SDS011;14871;52.702;5.230;2022-08-06T04:58:01;5.78;;;1.05;;
27412;SDS011;14871;52.702;5.230;2022-08-06T05:00:29;4.28;;;1.10;;
27412;SDS011;14871;52.702;5.230;2022-08-06T05:02:55;3.58;;;1.10;;
27412;SDS011;14871;52.702;5.230;2022-08-06T05:05:21;3.70;;;1.10;;
27412;SDS011;14871;52.702;5.230;2022-08-06T05:07:47;5.38;;;1.38;;
27412;SDS011;14871;52.702;5.230;2022-08-06T05:10:17;3.03;;;1.55;;
27412;SDS011;14871;52.702;5.230;2022-08-06T05:12:44;3.45;;;1.10;;
27412;SDS011;14871;52.702;5.230;2022-08-06T05:15:15;5.00;;;1.10;;
27412;SDS011;14871;52.702;5.230;2022-08-06T05:17:51;4.45;;;0.90;;
27412;SDS011;14871;52.702;5.230;2022-08-06T05:20:33;3.90;;;1.00;;
27412;SDS011;14871;52.702;5.230;2022-08-06T05:23:11;3.88;;;1.10;;
27412;SDS011;14871;52.702;5.230;2022-08-06T05:25:39;5.65;;;1.38;;
27412;SDS011;14871;52.702;5.230;2022-08-06T05:28:06;4.07;;;1.23;;
27412;SDS011;14871;52.702;5.230;2022-08-06T05:30:32;3.45;;;1.15;;
27412;SDS011;14871;52.702;5.230;2022-08-06T05:32:58;4.47;;;0.98;;
27412;SDS011;14871;52.702;5.230;2022-08-06T05:35:24;3.90;;;1.10;;
27412;SDS011;14871;52.702;5.230;2022-08-06T05:37:50;6.35;;;2.20;;
27412;SDS011;14871;52.702;5.230;2022-08-06T05:40:16;4.18;;;1.20;;
27412;SDS011;14871;52.702;5.230;2022-08-06T05:42:41;3.53;;;1.20;;
27412;SDS011;14871;52.702;5.230;2022-08-06T05:45:08;3.88;;;1.40;;
27412;SDS011;14871;52.702;5.230;2022-08-06T05:47:36;3.35;;;1.30;;
27412;SDS011;14871;52.702;5.230;2022-08-06T05:50:05;4.40;;;1.30;;
27412;SDS011;14871;52.702;5.230;2022-08-06T05:52:42;3.85;;;1.20;;
27412;SDS011;14871;52.702;5.230;2022-08-06T05:57:51;3.88;;;1.38;;
27412;SDS011;14871;52.702;5.230;2022-08-06T06:00:22;3.90;;;1.23;;
27412;SDS011;14871;52.702;5.230;2022-08-06T06:02:51;2.97;;;1.10;;
27412;SDS011;14871;52.702;5.230;2022-08-06T06:05:19;4.95;;;0.93;;
27412;SDS011;14871;52.702;5.230;2022-08-06T06:07:47;4.07;;;1.10;;
27412;SDS011;14871;52.702;5.230;2022-08-06T06:10:14;4.57;;;1.38;;
27412;SDS011;14871;52.702;5.230;2022-08-06T06:12:41;2.55;;;0.98;;
27412;SDS011;14871;52.702;5.230;2022-08-06T06:15:09;4.78;;;1.33;;
27412;SDS011;14871;52.702;5.230;2022-08-06T06:29:04;5.15;;;1.70;;
27412;SDS011;14871;52.702;5.230;2022-08-06T06:32:04;5.25;;;1.10;;
27412;SDS011;14871;52.702;5.230;2022-08-06T06:37:43;6.47;;;1.55;;
27412;SDS011;14871;52.702;5.230;2022-08-06T06:40:47;4.63;;;1.25;;
27412;SDS011;14871;52.702;5.230;2022-08-06T06:45:56;3.38;;;1.15;;
27412;SDS011;14871;52.702;5.230;2022-08-06T06:48:34;5.45;;;1.50;;
27412;SDS011;14871;52.702;5.230;2022-08-06T06:51:13;3.15;;;1.35;;
27412;SDS011;14871;52.702;5.230;2022-08-06T06:53:45;3.45;;;1.10;;
27412;SDS011;14871;52.702;5.230;2022-08-06T06:56:14;2.88;;;1.30;;
27412;SDS011;14871;52.702;5.230;2022-08-06T06:58:50;4.70;;;1.13;;
27412;SDS011;14871;52.702;5.230;2022-08-06T07:01:21;2.78;;;1.08;;
27412;SDS011;14871;52.702;5.230;2022-08-06T07:03:48;5.30;;;1.15;;
27412;SDS011;14871;52.702;5.230;2022-08-06T07:06:14;4.70;;;1.25;;
27412;SDS011;14871;52.702;5.230;2022-08-06T07:08:43;2.38;;;1.02;;
27412;SDS011;14871;52.702;5.230;2022-08-06T07:11:17;2.55;;;1.40;;
27412;SDS011;14871;52.702;5.230;2022-08-06T07:13:48;5.57;;;0.95;;
27412;SDS011;14871;52.702;5.230;2022-08-06T07:16:16;2.58;;;1.02;;
27412;SDS011;14871;52.702;5.230;2022-08-06T07:18:46;2.92;;;1.35;;
27412;SDS011;14871;52.702;5.230;2022-08-06T07:21:14;2.78;;;1.13;;
27412;SDS011;14871;52.702;5.230;2022-08-06T07:23:45;4.20;;;1.13;;
27412;SDS011;14871;52.702;5.230;2022-08-06T07:26:13;2.17;;;1.17;;
27412;SDS011;14871;52.702;5.230;2022-08-06T07:28:41;2.45;;;1.33;;
27412;SDS011;14871;52.702;5.230;2022-08-06T07:31:08;4.43;;;0.98;;
27412;SDS011;14871;52.702;5.230;2022-08-06T07:33:37;2.35;;;1.13;;
27412;SDS011;14871;52.702;5.230;2022-08-06T07:36:05;4.30;;;1.42;;
27412;SDS011;14871;52.702;5.230;2022-08-06T07:38:31;4.45;;;1.17;;
27412;SDS011;14871;52.702;5.230;2022-08-06T07:41:01;5.53;;;1.30;;
27412;SDS011;14871;52.702;5.230;2022-08-06T07:43:38;4.00;;;1.50;;
27412;SDS011;14871;52.702;5.230;2022-08-06T07:46:13;2.60;;;1.30;;
27412;SDS011;14871;52.702;5.230;2022-08-06T07:48:46;2.13;;;1.30;;
27412;SDS011;14871;52.702;5.230;2022-08-06T07:51:15;2.58;;;1.58;;
27412;SDS011;14871;52.702;5.230;2022-08-06T07:53:43;4.43;;;1.33;;
27412;SDS011;14871;52.702;5.230;2022-08-06T07:56:10;3.10;;;1.35;;
27412;SDS011;14871;52.702;5.230;2022-08-06T07:58:37;3.13;;;1.45;;
27412;SDS011;14871;52.702;5.230;2022-08-06T08:01:03;5.18;;;1.60;;
27412;SDS011;14871;52.702;5.230;2022-08-06T08:03:30;3.47;;;1.58;;
27412;SDS011;14871;52.702;5.230;2022-08-06T08:06:16;4.47;;;1.25;;
27412;SDS011;14871;52.702;5.230;2022-08-06T08:09:00;2.50;;;1.65;;
27412;SDS011;14871;52.702;5.230;2022-08-06T08:11:28;2.40;;;1.65;;
27412;SDS011;14871;52.702;5.230;2022-08-06T08:13:55;4.40;;;1.20;;
27412;SDS011;14871;52.702;5.230;2022-08-06T08:16:23;2.35;;;1.40;;
27412;SDS011;14871;52.702;5.230;2022-08-06T08:18:51;3.40;;;1.30;;
27412;SDS011;14871;52.702;5.230;2022-08-06T08:21:18;2.00;;;1.25;;
27412;SDS011;14871;52.702;5.230;2022-08-06T08:23:45;2.42;;;1.30;;
27412;SDS011;14871;52.702;5.230;2022-08-06T08:26:12;4.30;;;1.55;;
27412;SDS011;14871;52.702;5.230;2022-08-06T08:28:38;2.10;;;1.50;;
27412;SDS011;14871;52.702;5.230;2022-08-06T08:31:04;3.40;;;1.38;;
27412;SDS011;14871;52.702;5.230;2022-08-06T08:33:31;3.22;;;1.38;;
27412;SDS011;14871;52.702;5.230;2022-08-06T08:35:57;2.20;;;1.10;;
27412;SDS011;14871;52.702;5.230;2022-08-06T08:38:23;4.93;;;1.67;;
27412;SDS011;14871;52.702;5.230;2022-08-06T08:40:50;1.45;;;1.13;;
27412;SDS011;14871;52.702;5.230;2022-08-06T08:43:22;3.10;;;1.30;;
27412;SDS011;14871;52.702;5.230;2022-08-06T08:45:54;2.00;;;1.05;;
27412;SDS011;14871;52.702;5.230;2022-08-06T08:48:24;3.00;;;1.05;;
27412;SDS011;14871;52.702;5.230;2022-08-06T08:50:53;2.88;;;2.00;;
27412;SDS011;14871;52.702;5.230;2022-08-06T08:53:24;2.05;;;1.35;;
27412;SDS011;14871;52.702;5.230;2022-08-06T08:55:54;1.92;;;1.15;;
27412;SDS011;14871;52.702;5.230;2022-08-06T08:58:20;3.20;;;1.20;;
27412;SDS011;14871;52.702;5.230;2022-08-06T09:00:47;2.03;;;1.10;;
27412;SDS011;14871;52.702;5.230;2022-08-06T09:03:13;1.70;;;1.00;;
27412;SDS011;14871;52.702;5.230;2022-08-06T09:05:40;5.00;;;1.70;;
27412;SDS011;14871;52.702;5.230;2022-08-06T09:08:06;3.85;;;1.60;;
27412;SDS011;14871;52.702;5.230;2022-08-06T09:10:35;2.33;;;1.10;;
27412;SDS011;14871;52.702;5.230;2022-08-06T09:13:01;3.75;;;1.80;;
27412;SDS011;14871;52.702;5.230;2022-08-06T09:15:27;3.70;;;1.58;;
27412;SDS011;14871;52.702;5.230;2022-08-06T09:17:53;4.63;;;1.50;;
27412;SDS011;14871;52.702;5.230;2022-08-06T09:20:19;3.08;;;1.30;;
27412;SDS011;14871;52.702;5.230;2022-08-06T09:22:45;3.45;;;1.50;;
27412;SDS011;14871;52.702;5.230;2022-08-06T09:28:00;6.30;;;1.73;;
27412;SDS011;14871;52.702;5.230;2022-08-06T09:30:25;3.80;;;1.70;;
27412;SDS011;14871;52.702;5.230;2022-08-06T09:32:52;4.00;;;1.50;;
27412;SDS011;14871;52.702;5.230;2022-08-06T09:37:50;2.42;;;1.73;;
27412;SDS011;14871;52.702;5.230;2022-08-06T09:40:25;3.15;;;1.38;;
27412;SDS011;14871;52.702;5.230;2022-08-06T09:42:51;3.70;;;1.52;;
27412;SDS011;14871;52.702;5.230;2022-08-06T09:45:18;2.83;;;1.27;;
27412;SDS011;14871;52.702;5.230;2022-08-06T09:47:46;4.28;;;1.67;;
27412;SDS011;14871;52.702;5.230;2022-08-06T09:50:13;3.70;;;1.30;;
27412;SDS011;14871;52.702;5.230;2022-08-06T09:52:40;4.72;;;1.38;;
27412;SDS011;14871;52.702;5.230;2022-08-06T09:55:05;2.20;;;1.20;;
27412;SDS011;14871;52.702;5.230;2022-08-06T09:57:42;5.15;;;1.70;;
27412;SDS011;14871;52.702;5.230;2022-08-06T10:00:10;3.63;;;1.40;;
27412;SDS011;14871;52.702;5.230;2022-08-06T10:02:36;4.25;;;1.50;;
27412;SDS011;14871;52.702;5.230;2022-08-06T10:05:07;1.73;;;1.35;;
27412;SDS011;14871;52.702;5.230;2022-08-06T10:07:34;2.92;;;1.50;;
27412;SDS011;14871;52.702;5.230;2022-08-06T10:10:00;3.17;;;1.52;;
27412;SDS011;14871;52.702;5.230;2022-08-06T10:12:25;3.50;;;1.90;;
27412;SDS011;14871;52.702;5.230;2022-08-06T10:14:51;3.10;;;1.75;;
27412;SDS011;14871;52.702;5.230;2022-08-06T10:17:17;2.55;;;1.65;;
27412;SDS011;14871;52.702;5.230;2022-08-06T10:19:45;3.10;;;1.63;;
27412;SDS011;14871;52.702;5.230;2022-08-06T10:22:30;4.72;;;1.80;;
27412;SDS011;14871;52.702;5.230;2022-08-06T10:24:56;4.07;;;1.70;;
27412;SDS011;14871;52.702;5.230;2022-08-06T10:27:28;3.30;;;2.10;;
27412;SDS011;14871;52.702;5.230;2022-08-06T10:29:58;4.63;;;1.88;;
27412;SDS011;14871;52.702;5.230;2022-08-06T10:32:33;4.43;;;1.90;;
27412;SDS011;14871;52.702;5.230;2022-08-06T10:35:02;6.20;;;2.10;;
27412;SDS011;14871;52.702;5.230;2022-08-06T10:37:31;3.35;;;1.58;;
27412;SDS011;14871;52.702;5.230;2022-08-06T10:40:00;2.70;;;2.00;;
27412;SDS011;14871;52.702;5.230;2022-08-06T10:42:27;3.65;;;1.77;;
27412;SDS011;14871;52.702;5.230;2022-08-06T10:44:53;2.90;;;2.10;;
27412;SDS011;14871;52.702;5.230;2022-08-06T10:47:20;5.13;;;2.20;;
27412;SDS011;14871;52.702;5.230;2022-08-06T10:49:46;4.78;;;2.45;;
27412;SDS011;14871;52.702;5.230;2022-08-06T10:52:13;3.53;;;1.88;;
27412;SDS011;14871;52.702;5.230;2022-08-06T10:54:40;3.03;;;2.10;;
27412;SDS011;14871;52.702;5.230;2022-08-06T10:57:08;2.45;;;1.73;;
27412;SDS011;14871;52.702;5.230;2022-08-06T10:59:37;5.57;;;2.30;;
27412;SDS011;14871;52.702;5.230;2022-08-06T11:05:29;2.72;;;1.63;;
27412;SDS011;14871;52.702;5.230;2022-08-06T11:13:54;2.58;;;1.27;;
27412;SDS011;14871;52.702;5.230;2022-08-06T11:16:29;2.20;;;1.73;;
27412;SDS011;14871;52.702;5.230;2022-08-06T11:19:06;4.28;;;1.90;;
27412;SDS011;14871;52.702;5.230;2022-08-06T11:21:37;3.00;;;1.83;;
27412;SDS011;14871;52.702;5.230;2022-08-06T11:24:13;3.97;;;1.60;;
27412;SDS011;14871;52.702;5.230;2022-08-06T11:26:41;3.47;;;1.40;;
27412;SDS011;14871;52.702;5.230;2022-08-06T11:29:09;3.65;;;1.85;;
27412;SDS011;14871;52.702;5.230;2022-08-06T11:31:38;2.15;;;1.38;;
27412;SDS011;14871;52.702;5.230;2022-08-06T11:34:09;2.35;;;1.50;;
27412;SDS011;14871;52.702;5.230;2022-08-06T11:36:55;2.35;;;1.25;;
27412;SDS011;14871;52.702;5.230;2022-08-06T11:39:23;4.80;;;1.58;;
27412;SDS011;14871;52.702;5.230;2022-08-06T11:41:54;5.07;;;1.55;;
27412;SDS011;14871;52.702;5.230;2022-08-06T11:44:31;2.53;;;1.25;;
27412;SDS011;14871;52.702;5.230;2022-08-06T11:47:06;4.25;;;2.28;;
27412;SDS011;14871;52.702;5.230;2022-08-06T11:52:02;2.88;;;1.95;;
27412;SDS011;14871;52.702;5.230;2022-08-06T11:54:29;3.00;;;1.73;;
27412;SDS011;14871;52.702;5.230;2022-08-06T12:00:01;2.17;;;1.60;;
27412;SDS011;14871;52.702;5.230;2022-08-06T12:07:43;4.03;;;2.17;;
27412;SDS011;14871;52.702;5.230;2022-08-06T12:10:11;3.00;;;1.73;;
27412;SDS011;14871;52.702;5.230;2022-08-06T12:18:19;3.45;;;1.58;;
27412;SDS011;14871;52.702;5.230;2022-08-06T12:20:36;2.92;;;1.52;;
27412;SDS011;14871;52.702;5.230;2022-08-06T12:23:07;4.13;;;1.60;;
27412;SDS011;14871;52.702;5.230;2022-08-06T12:28:04;2.30;;;1.40;;
27412;SDS011;14871;52.702;5.230;2022-08-06T12:30:52;1.20;;;1.00;;
27412;SDS011;14871;52.702;5.230;2022-08-06T12:33:19;2.50;;;1.48;;
27412;SDS011;14871;52.702;5.230;2022-08-06T12:35:53;3.58;;;1.23;;
27412;SDS011;14871;52.702;5.230;2022-08-06T12:38:25;3.38;;;1.20;;
27412;SDS011;14871;52.702;5.230;2022-08-06T12:40:59;3.95;;;1.38;;
27412;SDS011;14871;52.702;5.230;2022-08-06T12:43:25;4.53;;;1.40;;
27412;SDS011;14871;52.702;5.230;2022-08-06T12:45:57;3.03;;;1.30;;
27412;SDS011;14871;52.702;5.230;2022-08-06T12:48:34;2.97;;;1.27;;
27412;SDS011;14871;52.702;5.230;2022-08-06T12:51:02;2.20;;;1.40;;
27412;SDS011;14871;52.702;5.230;2022-08-06T12:53:40;1.63;;;1.17;;
27412;SDS011;14871;52.702;5.230;2022-08-06T12:56:18;3.25;;;1.40;;
27412;SDS011;14871;52.702;5.230;2022-08-06T12:58:46;4.13;;;1.10;;
27412;SDS011;14871;52.702;5.230;2022-08-06T13:01:14;1.45;;;1.23;;
27412;SDS011;14871;52.702;5.230;2022-08-06T13:03:43;1.75;;;1.10;;
27412;SDS011;14871;52.702;5.230;2022-08-06T13:06:11;2.97;;;1.02;;
27412;SDS011;14871;52.702;5.230;2022-08-06T13:08:39;3.33;;;0.93;;
27412;SDS011;14871;52.702;5.230;2022-08-06T13:11:06;3.50;;;1.00;;
27412;SDS011;14871;52.702;5.230;2022-08-06T13:13:39;1.92;;;1.17;;
27412;SDS011;14871;52.702;5.230;2022-08-06T13:16:12;2.03;;;1.10;;
27412;SDS011;14871;52.702;5.230;2022-08-06T13:18:39;2.10;;;1.00;;
27412;SDS011;14871;52.702;5.230;2022-08-06T13:23:44;3.15;;;1.13;;
27412;SDS011;14871;52.702;5.230;2022-08-06T13:26:19;2.28;;;1.00;;
27412;SDS011;14871;52.702;5.230;2022-08-06T13:31:41;2.63;;;1.05;;
27412;SDS011;14871;52.702;5.230;2022-08-06T13:34:12;1.50;;;0.90;;
27412;SDS011;14871;52.702;5.230;2022-08-06T13:36:41;1.70;;;0.90;;
27412;SDS011;14871;52.702;5.230;2022-08-06T13:42:00;1.40;;;0.90;;
27412;SDS011;14871;52.702;5.230;2022-08-06T13:44:33;2.78;;;0.68;;
27412;SDS011;14871;52.702;5.230;2022-08-06T13:47:00;1.55;;;1.00;;
27412;SDS011;14871;52.702;5.230;2022-08-06T13:49:26;2.80;;;0.98;;
27412;SDS011;14871;52.702;5.230;2022-08-06T13:51:52;1.67;;;0.70;;
27412;SDS011;14871;52.702;5.230;2022-08-06T13:54:18;2.78;;;0.80;;
27412;SDS011;14871;52.702;5.230;2022-08-06T13:56:44;1.98;;;0.68;;
27412;SDS011;14871;52.702;5.230;2022-08-06T13:59:11;2.72;;;0.50;;
27412;SDS011;14871;52.702;5.230;2022-08-06T14:01:36;2.58;;;0.90;;
27412;SDS011;14871;52.702;5.230;2022-08-06T14:04:02;1.92;;;0.95;;
27412;SDS011;14871;52.702;5.230;2022-08-06T14:06:28;2.97;;;1.02;;
27412;SDS011;14871;52.702;5.230;2022-08-06T14:08:53;1.75;;;1.00;;
27412;SDS011;14871;52.702;5.230;2022-08-06T14:11:19;1.77;;;0.70;;
27412;SDS011;14871;52.702;5.230;2022-08-06T14:13:45;1.95;;;0.68;;
27412;SDS011;14871;52.702;5.230;2022-08-06T14:16:10;2.65;;;0.70;;
27412;SDS011;14871;52.702;5.230;2022-08-06T14:18:36;1.58;;;0.60;;
27412;SDS011;14871;52.702;5.230;2022-08-06T14:21:01;1.77;;;0.60;;
27412;SDS011;14871;52.702;5.230;2022-08-06T14:23:27;1.15;;;0.70;;
27412;SDS011;14871;52.702;5.230;2022-08-06T14:25:52;2.00;;;0.52;;
27412;SDS011;14871;52.702;5.230;2022-08-06T14:28:18;2.95;;;0.60;;
27412;SDS011;14871;52.702;5.230;2022-08-06T14:30:45;1.02;;;0.50;;
27412;SDS011;14871;52.702;5.230;2022-08-06T14:33:11;2.53;;;0.82;;
27412;SDS011;14871;52.702;5.230;2022-08-06T14:35:37;3.58;;;0.60;;
27412;SDS011;14871;52.702;5.230;2022-08-06T14:38:04;1.73;;;0.60;;
27412;SDS011;14871;52.702;5.230;2022-08-06T14:40:30;0.75;;;0.47;;
27412;SDS011;14871;52.702;5.230;2022-08-06T14:43:15;1.48;;;0.50;;
27412;SDS011;14871;52.702;5.230;2022-08-06T14:45:59;1.38;;;0.55;;
27412;SDS011;14871;52.702;5.230;2022-08-06T14:48:24;1.20;;;0.57;;
27412;SDS011;14871;52.702;5.230;2022-08-06T14:50:50;1.33;;;0.50;;
27412;SDS011;14871;52.702;5.230;2022-08-06T14:53:15;1.27;;;0.50;;
27412;SDS011;14871;52.702;5.230;2022-08-06T14:55:41;1.35;;;0.60;;
27412;SDS011;14871;52.702;5.230;2022-08-06T14:58:07;1.60;;;0.40;;
27412;SDS011;14871;52.702;5.230;2022-08-06T15:00:32;1.58;;;0.40;;
27412;SDS011;14871;52.702;5.230;2022-08-06T15:02:58;0.75;;;0.50;;
27412;SDS011;14871;52.702;5.230;2022-08-06T15:05:24;1.35;;;0.40;;
27412;SDS011;14871;52.702;5.230;2022-08-06T15:07:49;1.20;;;0.35;;
27412;SDS011;14871;52.702;5.230;2022-08-06T15:10:15;3.05;;;0.40;;
27412;SDS011;14871;52.702;5.230;2022-08-06T15:12:41;3.80;;;0.52;;
27412;SDS011;14871;52.702;5.230;2022-08-06T15:15:06;1.58;;;0.40;;
27412;SDS011;14871;52.702;5.230;2022-08-06T15:17:33;0.88;;;0.40;;
27412;SDS011;14871;52.702;5.230;2022-08-06T15:19:58;2.30;;;0.80;;
27412;SDS011;14871;52.702;5.230;2022-08-06T15:22:24;2.00;;;0.60;;
27412;SDS011;14871;52.702;5.230;2022-08-06T15:24:49;1.85;;;0.50;;
27412;SDS011;14871;52.702;5.230;2022-08-06T15:27:15;3.03;;;0.60;;
27412;SDS011;14871;52.702;5.230;2022-08-06T15:29:45;1.13;;;0.40;;
27412;SDS011;14871;52.702;5.230;2022-08-06T15:32:13;0.90;;;0.30;;
27412;SDS011;14871;52.702;5.230;2022-08-06T15:34:40;1.40;;;0.50;;
27412;SDS011;14871;52.702;5.230;2022-08-06T15:37:06;1.83;;;0.47;;
27412;SDS011;14871;52.702;5.230;2022-08-06T15:39:33;0.68;;;0.40;;
27412;SDS011;14871;52.702;5.230;2022-08-06T15:41:59;1.85;;;0.47;;
27412;SDS011;14871;52.702;5.230;2022-08-06T15:44:25;0.88;;;0.40;;
27412;SDS011;14871;52.702;5.230;2022-08-06T15:46:50;2.78;;;0.50;;
27412;SDS011;14871;52.702;5.230;2022-08-06T15:49:16;2.40;;;0.68;;
27412;SDS011;14871;52.702;5.230;2022-08-06T15:51:42;1.85;;;0.60;;
27412;SDS011;14871;52.702;5.230;2022-08-06T15:54:08;1.85;;;0.40;;
27412;SDS011;14871;52.702;5.230;2022-08-06T15:56:33;3.20;;;0.60;;
27412;SDS011;14871;52.702;5.230;2022-08-06T15:58:59;1.02;;;0.47;;
27412;SDS011;14871;52.702;5.230;2022-08-06T16:01:25;2.38;;;0.32;;
27412;SDS011;14871;52.702;5.230;2022-08-06T16:03:51;1.38;;;0.57;;
27412;SDS011;14871;52.702;5.230;2022-08-06T16:06:17;0.90;;;0.63;;
27412;SDS011;14871;52.702;5.230;2022-08-06T16:08:43;2.10;;;0.70;;
27412;SDS011;14871;52.702;5.230;2022-08-06T16:11:09;1.02;;;0.65;;